Time;durP1;ratioP1;P1;durP2;ratioP2;P2;SDS_P1;SDS_P2;PMS_P1;PMS_P2;Temp;Humidity;BMP_temperature;BMP_pressure;BME280_temperature;BME280_humidity;BME280_pressure;Samples;Min_cycle;Max_cycle;Signal;HPM_P1;HPM_P2
2024/01/13 00:01:50;;;;;;;33.25;21.88;;;;;;;1.58;100.00;102845.09;5130729;27;20470;-78
2024/01/13 00:04:16;;;;;;;29.73;21.85;;;;;;;1.56;100.00;102851.16;5127330;27;20483;-79
2024/01/13 00:06:41;;;;;;;26.77;20.90;;;;;;;1.58;100.00;102845.09;5112940;27;20027;-79
2024/01/13 00:09:07;;;;;;;25.05;20.20;;;;;;;1.61;100.00;102841.66;5124315;27;20134;-77
2024/01/13 00:11:32;;;;;;;28.65;20.50;;;;;;;1.59;100.00;102843.34;5131038;27;20538;-77
2024/01/13 00:13:58;;;;;;;28.80;20.73;;;;;;;1.58;100.00;102837.31;5129808;27;20038;-77
2024/01/13 00:16:23;;;;;;;24.00;19.92;;;;;;;1.60;100.00;102829.50;5131243;27;20019;-77
2024/01/13 00:18:49;;;;;;;26.85;19.75;;;;;;;1.61;100.00;102833.88;5112364;27;20051;-78
2024/01/13 00:21:14;;;;;;;24.48;18.65;;;;;;;1.62;100.00;102825.22;5116984;27;20075;-77
2024/01/13 00:23:39;;;;;;;24.00;19.35;;;;;;;1.61;100.00;102817.44;5128492;27;20102;-77
2024/01/13 00:26:05;;;;;;;24.17;17.98;;;;;;;1.62;100.00;102809.66;5116202;27;20058;-78
2024/01/13 00:28:31;;;;;;;24.35;17.85;;;;;;;1.61;100.00;102823.50;5121966;27;20057;-78
2024/01/13 00:30:56;;;;;;;24.98;17.48;;;;;;;1.64;100.00;102817.41;5109657;27;20030;-78
2024/01/13 00:33:21;;;;;;;23.48;18.42;;;;;;;1.64;100.00;102818.28;5107723;27;20023;-77
2024/01/13 00:35:48;;;;;;;24.42;17.85;;;;;;;1.66;100.00;102815.69;5127077;27;20778;-78
2024/01/13 00:38:13;;;;;;;21.55;17.52;;;;;;;1.63;100.00;102798.41;5121374;27;20062;-78
2024/01/13 00:40:38;;;;;;;21.05;17.05;;;;;;;1.67;100.00;102807.03;5127074;27;20046;-78
2024/01/13 00:43:04;;;;;;;26.42;17.75;;;;;;;1.67;100.00;102812.22;5104941;27;20039;-85
2024/01/13 00:45:29;;;;;;;22.17;17.35;;;;;;;1.66;100.00;102803.56;5110506;27;20034;-85
2024/01/13 00:47:54;;;;;;;24.40;18.02;;;;;;;1.66;100.00;102794.94;5115641;27;20494;-85
2024/01/13 00:50:19;;;;;;;24.35;17.92;;;;;;;1.65;100.00;102794.06;5116092;27;20015;-85
2024/01/13 00:52:45;;;;;;;27.10;17.35;;;;;;;1.66;100.00;102795.78;5107437;28;20035;-85
2024/01/13 00:55:10;;;;;;;22.65;17.85;;;;;;;1.65;100.00;102788.88;5097209;28;20291;-85
2024/01/13 00:57:35;;;;;;;22.42;17.83;;;;;;;1.66;100.00;102788.00;5124786;27;20106;-85
2024/01/13 01:00:01;;;;;;;23.40;17.00;;;;;;;1.66;100.00;102792.34;5105515;28;20024;-85
2024/01/13 01:02:26;;;;;;;24.67;17.48;;;;;;;1.66;100.00;102790.59;5126732;27;20497;-85
2024/01/13 01:04:54;;;;;;;22.20;17.23;;;;;;;1.64;100.00;102792.34;5127368;27;20618;-85
2024/01/13 01:07:19;;;;;;;22.67;16.90;;;;;;;1.63;100.00;102785.44;5101383;28;20057;-85
2024/01/13 01:09:45;;;;;;;20.30;16.67;;;;;;;1.63;100.00;102785.44;5112044;28;20035;-84
2024/01/13 01:12:10;;;;;;;25.83;17.08;;;;;;;1.61;100.00;102781.13;5107837;28;20059;-84
2024/01/13 01:14:35;;;;;;;19.15;16.90;;;;;;;1.61;100.00;102770.75;5118272;28;20023;-84
2024/01/13 01:17:01;;;;;;;18.52;16.25;;;;;;;1.60;100.00;102780.22;5125470;27;20359;-84
2024/01/13 01:19:26;;;;;;;22.48;17.35;;;;;;;1.61;100.00;102781.13;5109276;28;20034;-84
2024/01/13 01:21:52;;;;;;;20.60;17.42;;;;;;;1.62;100.00;102772.47;5126018;28;20023;-85
2024/01/13 01:24:17;;;;;;;22.63;17.65;;;;;;;1.59;100.00;102778.50;5127904;28;20058;-85
2024/01/13 01:26:42;;;;;;;22.35;17.48;;;;;;;1.58;100.00;102777.66;5110228;28;20038;-85
2024/01/13 01:29:08;;;;;;;22.83;18.05;;;;;;;1.59;100.00;102765.53;5112783;28;20031;-85
2024/01/13 01:31:33;;;;;;;25.25;18.55;;;;;;;1.63;100.00;102764.69;5108528;28;20018;-84
2024/01/13 01:33:59;;;;;;;22.83;19.52;;;;;;;1.62;100.00;102757.75;5109046;28;20027;-85
2024/01/13 01:36:24;;;;;;;23.80;19.50;;;;;;;1.61;100.00;102756.03;5114328;28;20034;-84
2024/01/13 01:38:49;;;;;;;22.48;19.08;;;;;;;1.63;100.00;102754.28;5117765;28;20015;-85
2024/01/13 01:41:15;;;;;;;25.13;20.30;;;;;;;1.61;100.00;102750.84;5126867;28;20045;-85
2024/01/13 01:43:40;;;;;;;24.27;19.95;;;;;;;1.62;100.00;102752.56;5127015;27;20023;-84
2024/01/13 01:46:06;;;;;;;24.05;20.35;;;;;;;1.64;100.00;102740.44;5123817;28;20115;-84
2024/01/13 01:48:37;;;;;;;26.30;21.38;;;;;;;1.63;100.00;102743.91;5128573;28;20485;-85
2024/01/13 01:51:04;;;;;;;23.65;21.08;;;;;;;1.63;100.00;102754.28;5126262;27;20595;-84
2024/01/13 01:53:29;;;;;;;27.15;21.45;;;;;;;1.65;100.00;102754.28;5121724;27;20080;-85
2024/01/13 01:55:55;;;;;;;27.08;23.08;;;;;;;1.66;100.00;102749.09;5111936;28;20703;-85
2024/01/13 01:58:21;;;;;;;27.13;22.73;;;;;;;1.67;100.00;102743.03;5125042;27;20023;-85
2024/01/13 02:00:48;;;;;;;24.85;22.17;;;;;;;1.65;100.00;102739.59;5129132;27;20068;-85
2024/01/13 02:03:14;;;;;;;26.55;22.48;;;;;;;1.67;100.00;102737.84;5111178;27;20489;-85
2024/01/13 02:05:39;;;;;;;24.80;22.08;;;;;;;1.67;100.00;102747.34;5122065;27;20102;-85
2024/01/13 02:08:05;;;;;;;25.65;22.10;;;;;;;1.67;100.00;102743.03;5116457;27;20515;-85
2024/01/13 02:10:31;;;;;;;25.02;22.42;;;;;;;1.65;100.00;102731.78;5130874;27;20039;-78
2024/01/13 02:12:57;;;;;;;27.27;22.70;;;;;;;1.63;100.00;102733.53;5112533;27;20505;-78
2024/01/13 02:15:22;;;;;;;27.30;23.00;;;;;;;1.63;100.00;102730.94;5123525;27;20031;-85
2024/01/13 02:17:48;;;;;;;25.42;22.55;;;;;;;1.63;100.00;102727.50;5112535;27;20031;-85
2024/01/13 02:20:13;;;;;;;25.35;22.65;;;;;;;1.65;100.00;102721.41;5118982;27;20023;-85
2024/01/13 02:22:38;;;;;;;25.73;23.00;;;;;;;1.65;100.00;102713.63;5112024;27;20110;-85
2024/01/13 02:25:05;;;;;;;27.10;23.17;;;;;;;1.64;100.00;102709.31;5118703;27;20077;-85
2024/01/13 02:27:30;;;;;;;25.88;23.35;;;;;;;1.67;100.00;102711.88;5110455;28;20015;-85
2024/01/13 02:29:56;;;;;;;25.13;22.50;;;;;;;1.69;100.00;102709.28;5110568;27;20095;-85
2024/01/13 02:32:21;;;;;;;24.70;22.20;;;;;;;1.67;100.00;102709.31;5115336;27;20031;-85
2024/01/13 02:34:50;;;;;;;24.88;22.25;;;;;;;1.69;100.00;102697.19;5129698;27;20099;-85
2024/01/13 02:37:15;;;;;;;26.40;21.98;;;;;;;1.69;100.00;102694.59;5096585;28;20040;-79
2024/01/13 02:39:40;;;;;;;25.25;22.60;;;;;;;1.70;100.00;102696.31;5124811;27;20050;-78
2024/01/13 02:42:06;;;;;;;24.83;22.08;;;;;;;1.68;100.00;102690.25;5124485;27;20039;-79
2024/01/13 02:44:31;;;;;;;24.38;21.65;;;;;;;1.70;100.00;102695.44;5119542;27;20031;-79
2024/01/13 02:46:57;;;;;;;25.90;22.92;;;;;;;1.70;100.00;102696.31;5119004;27;20173;-79
2024/01/13 02:49:23;;;;;;;24.75;22.15;;;;;;;1.70;100.00;102693.72;5130520;27;20475;-79
2024/01/13 02:51:48;;;;;;;24.48;21.98;;;;;;;1.69;100.00;102691.97;5120514;27;20035;-79
2024/01/13 02:54:13;;;;;;;23.35;20.95;;;;;;;1.70;100.00;102687.66;5122248;27;20103;-79
2024/01/13 02:56:39;;;;;;;24.13;21.80;;;;;;;1.69;100.00;102681.59;5117453;27;20046;-79
2024/01/13 02:59:04;;;;;;;23.15;20.70;;;;;;;1.67;100.00;102672.97;5114829;27;20395;-79
2024/01/13 03:01:30;;;;;;;24.58;22.08;;;;;;;1.68;100.00;102664.31;5123251;27;20023;-79
2024/01/13 03:03:56;;;;;;;23.40;20.92;;;;;;;1.69;100.00;102665.19;5125780;27;20035;-86
2024/01/13 03:06:23;;;;;;;23.15;20.75;;;;;;;1.69;100.00;102668.63;5117357;27;20023;-79
2024/01/13 03:08:48;;;;;;;22.13;19.98;;;;;;;1.69;100.00;102666.03;5121664;27;20093;-79
2024/01/13 03:11:13;;;;;;;22.58;20.35;;;;;;;1.71;100.00;102658.25;5124676;27;20074;-79
2024/01/13 03:13:39;;;;;;;23.13;20.83;;;;;;;1.72;100.00;102659.97;5128167;27;20023;-79
2024/01/13 03:16:05;;;;;;;22.80;20.52;;;;;;;1.71;100.00;102643.53;5126269;27;20026;-79
2024/01/13 03:18:31;;;;;;;23.98;19.70;;;;;;;1.71;100.00;102643.53;5111532;27;20026;-79
2024/01/13 03:20:56;;;;;;;20.60;18.40;;;;;;;1.74;100.00;102638.31;5129357;27;20395;-79
2024/01/13 03:23:21;;;;;;;18.85;16.95;;;;;;;1.74;100.00;102624.47;5099767;28;20019;-79
2024/01/13 03:25:50;;;;;;;17.88;16.05;;;;;;;1.75;100.00;102613.22;5124527;27;20682;-79
2024/01/13 03:28:15;;;;;;;17.35;15.65;;;;;;;1.78;100.00;102614.06;5121794;27;20031;-79
2024/01/13 03:30:40;;;;;;;16.63;14.80;;;;;;;1.79;100.00;102609.72;5125262;27;20550;-79
2024/01/13 03:33:05;;;;;;;15.57;14.07;;;;;;;1.81;100.00;102608.84;5109038;27;20032;-79
2024/01/13 03:35:31;;;;;;;14.93;13.52;;;;;;;1.82;100.00;102610.56;5109479;27;20028;-79
2024/01/13 03:37:56;;;;;;;14.60;13.20;;;;;;;1.83;100.00;102601.91;5109573;27;20038;-80
2024/01/13 03:40:22;;;;;;;13.98;12.68;;;;;;;1.84;100.00;102603.63;5121329;27;20107;-79
2024/01/13 03:42:50;;;;;;;13.35;12.02;;;;;;;1.86;100.00;102601.88;5110793;27;20133;-79
2024/01/13 03:45:16;;;;;;;12.57;11.30;;;;;;;1.90;100.00;102602.69;5122632;27;20112;-86
2024/01/13 03:47:41;;;;;;;11.80;10.63;;;;;;;1.88;100.00;102600.13;5116899;27;20077;-79
2024/01/13 03:50:07;;;;;;;10.95;9.85;;;;;;;1.92;100.00;102594.91;5109373;28;20023;-85
2024/01/13 03:52:33;;;;;;;10.60;9.60;;;;;;;1.90;100.00;102576.75;5123311;27;20015;-86
2024/01/13 03:54:59;;;;;;;11.30;9.90;;;;;;;1.91;100.00;102582.78;5122132;27;20140;-86
2024/01/13 03:57:25;;;;;;;10.38;9.48;;;;;;;1.93;100.00;102588.81;5119919;27;20030;-85
2024/01/13 03:59:50;;;;;;;10.45;9.50;;;;;;;1.95;100.00;102587.06;5106271;27;20118;-86
2024/01/13 04:02:16;;;;;;;10.63;9.55;;;;;;;1.93;100.00;102581.91;5123097;27;20051;-85
2024/01/13 04:04:41;;;;;;;10.25;9.25;;;;;;;1.95;100.00;102581.88;5116250;27;20515;-86
2024/01/13 04:07:07;;;;;;;9.45;8.55;;;;;;;1.94;100.00;102582.75;5110722;27;20597;-86
2024/01/13 04:09:33;;;;;;;10.23;9.18;;;;;;;1.95;100.00;102579.28;5126597;27;20378;-86
2024/01/13 04:11:58;;;;;;;10.68;9.27;;;;;;;1.96;100.00;102576.69;5125656;27;20050;-86
2024/01/13 04:14:24;;;;;;;9.68;8.88;;;;;;;1.94;100.00;102567.19;5128640;27;20031;-86
2024/01/13 04:16:49;;;;;;;10.68;9.57;;;;;;;1.92;100.00;102568.94;5123625;27;20060;-85
2024/01/13 04:19:15;;;;;;;10.48;9.55;;;;;;;1.91;100.00;102562.03;5125321;27;20075;-85
2024/01/13 04:21:41;;;;;;;10.55;9.55;;;;;;;1.88;100.00;102563.78;5123593;27;20023;-85
2024/01/13 04:24:07;;;;;;;10.50;9.50;;;;;;;1.87;100.00;102549.09;5122505;27;20073;-85
2024/01/13 04:26:32;;;;;;;10.80;9.70;;;;;;;1.88;100.00;102545.63;5094052;28;20543;-86
2024/01/13 04:28:58;;;;;;;11.55;10.50;;;;;;;1.86;100.00;102549.09;5119437;27;20075;-85
2024/01/13 04:31:23;;;;;;;10.90;9.90;;;;;;;1.86;100.00;102552.56;5105955;27;20114;-85
2024/01/13 04:33:48;;;;;;;11.30;10.30;;;;;;;1.84;100.00;102543.94;5122252;27;20114;-85
2024/01/13 04:36:14;;;;;;;11.65;10.45;;;;;;;1.83;100.00;102539.63;5125393;27;20031;-85
2024/01/13 04:38:39;;;;;;;12.68;11.35;;;;;;;1.86;100.00;102543.91;5122672;27;20055;-85
2024/01/13 04:41:05;;;;;;;12.32;10.70;;;;;;;1.85;100.00;102540.47;5100291;28;20055;-86
2024/01/13 04:43:30;;;;;;;12.38;11.20;;;;;;;1.86;100.00;102543.91;5129376;27;20027;-85
2024/01/13 04:45:56;;;;;;;12.57;11.32;;;;;;;1.86;100.00;102547.38;5124466;27;20023;-85
2024/01/13 04:48:22;;;;;;;12.88;11.57;;;;;;;1.87;100.00;102541.31;5126410;27;20015;-86
2024/01/13 04:50:51;;;;;;;13.23;11.95;;;;;;;1.88;100.00;102543.03;5127409;27;20045;-86
2024/01/13 04:53:16;;;;;;;13.02;11.55;;;;;;;1.86;100.00;102544.78;5103882;27;20039;-85
2024/01/13 04:55:42;;;;;;;13.05;11.75;;;;;;;1.84;100.00;102546.53;5123247;27;20050;-86
2024/01/13 04:58:07;;;;;;;14.25;12.68;;;;;;;1.83;100.00;102542.22;5121434;27;20062;-85
2024/01/13 05:00:33;;;;;;;16.27;13.02;;;;;;;1.84;100.00;102530.97;5118771;27;20022;-86
2024/01/13 05:03:00;;;;;;;16.08;14.48;;;;;;;1.84;100.00;102530.09;5122644;27;20038;-86
2024/01/13 05:05:26;;;;;;;16.70;14.90;;;;;;;1.83;100.00;102528.38;5124219;27;20015;-86
2024/01/13 05:07:54;;;;;;;17.52;15.75;;;;;;;1.84;100.00;102535.28;5107966;27;20027;-85
2024/01/13 05:10:20;;;;;;;20.40;18.05;;;;;;;1.83;100.00;102539.63;5112665;27;20048;-85
2024/01/13 05:12:45;;;;;;;21.98;18.80;;;;;;;1.82;100.00;102531.84;5126804;28;20033;-86
2024/01/13 05:15:11;;;;;;;23.02;20.20;;;;;;;1.85;100.00;102534.41;5122201;28;20027;-86
2024/01/13 05:17:36;;;;;;;23.15;20.38;;;;;;;1.86;100.00;102529.22;5110146;27;20475;-86
2024/01/13 05:20:02;;;;;;;23.65;21.20;;;;;;;1.87;100.00;102530.91;5125983;27;20035;-86
2024/01/13 05:22:27;;;;;;;26.05;23.33;;;;;;;1.83;100.00;102524.06;5118227;28;20027;-86
2024/01/13 05:24:53;;;;;;;27.63;23.15;;;;;;;1.85;100.00;102529.22;5128407;27;20024;-85
2024/01/13 05:27:18;;;;;;;29.67;24.25;;;;;;;1.84;100.00;102525.75;5112492;28;20027;-85
2024/01/13 05:29:43;;;;;;;29.70;26.60;;;;;;;1.83;100.00;102529.25;5109795;28;20015;-85
2024/01/13 05:32:09;;;;;;;31.38;27.55;;;;;;;1.85;100.00;102526.63;5111646;28;20034;-86
2024/01/13 05:34:34;;;;;;;31.45;28.05;;;;;;;1.85;100.00;102522.28;5122181;27;20078;-86
2024/01/13 05:37:00;;;;;;;35.22;29.67;;;;;;;1.84;100.00;102517.97;5130600;27;20035;-85
2024/01/13 05:39:25;;;;;;;33.42;29.83;;;;;;;1.83;100.00;102518.84;5132694;27;20509;-86
2024/01/13 05:41:50;;;;;;;35.08;31.05;;;;;;;1.84;100.00;102520.56;5121601;27;20055;-85
2024/01/13 05:44:16;;;;;;;36.97;33.03;;;;;;;1.84;100.00;102517.13;5125259;27;20026;-85
2024/01/13 05:46:41;;;;;;;39.17;34.30;;;;;;;1.79;100.00;102519.78;5131760;27;20487;-85
2024/01/13 05:49:07;;;;;;;39.08;34.95;;;;;;;1.81;100.00;102518.03;5133203;27;20385;-85
2024/01/13 05:51:33;;;;;;;39.25;34.78;;;;;;;1.81;100.00;102515.41;5117199;27;20023;-86
2024/01/13 05:53:59;;;;;;;40.63;35.75;;;;;;;1.82;100.00;102519.72;5127026;27;20050;-85
2024/01/13 05:56:24;;;;;;;40.80;36.38;;;;;;;1.81;100.00;102514.56;5124704;27;20371;-85
2024/01/13 05:58:50;;;;;;;45.08;38.33;;;;;;;1.80;100.00;102518.91;5123421;27;20019;-78
2024/01/13 06:01:15;;;;;;;42.03;37.33;;;;;;;1.79;100.00;102512.00;5128622;27;20035;-78
2024/01/13 06:03:41;;;;;;;42.53;38.03;;;;;;;1.80;100.00;102528.41;5130931;27;20542;-78
2024/01/13 06:06:09;;;;;;;42.28;37.78;;;;;;;1.80;100.00;102529.28;5121519;27;20156;-78
2024/01/13 06:08:35;;;;;;;41.60;37.10;;;;;;;1.79;100.00;102526.69;5126176;27;20110;-78
2024/01/13 06:11:01;;;;;;;46.60;39.15;;;;;;;1.79;100.00;102532.75;5126081;27;20118;-78
2024/01/13 06:13:26;;;;;;;44.25;39.35;;;;;;;1.80;100.00;102539.66;5130959;27;20075;-78
2024/01/13 06:15:55;;;;;;;46.42;40.35;;;;;;;1.79;100.00;102531.88;5131008;27;20034;-78
2024/01/13 06:18:20;;;;;;;44.78;39.15;;;;;;;1.78;100.00;102515.47;5130066;27;20037;-78
2024/01/13 06:20:46;;;;;;;47.47;40.88;;;;;;;1.79;100.00;102511.13;5101528;28;20107;-78
2024/01/13 06:23:11;;;;;;;46.92;39.97;;;;;;;1.77;100.00;102510.28;5127120;27;20039;-78
2024/01/13 06:25:36;;;;;;;49.20;41.55;;;;;;;1.75;100.00;102506.84;5127491;27;20054;-78
2024/01/13 06:28:02;;;;;;;48.08;42.63;;;;;;;1.76;100.00;102496.44;5101661;27;20528;-78
2024/01/13 06:30:27;;;;;;;48.25;42.20;;;;;;;1.74;100.00;102490.41;5119643;27;20075;-78
2024/01/13 06:32:53;;;;;;;46.38;41.38;;;;;;;1.75;100.00;102480.91;5125830;27;20027;-85
2024/01/13 06:35:18;;;;;;;51.70;42.88;;;;;;;1.75;100.00;102467.94;5107261;27;20110;-84
2024/01/13 06:37:44;;;;;;;51.00;42.92;;;;;;;1.74;100.00;102472.25;5103566;27;20023;-78
2024/01/13 06:40:10;;;;;;;50.15;43.10;;;;;;;1.74;100.00;102466.22;5128849;27;20066;-84
2024/01/13 06:42:35;;;;;;;47.45;42.30;;;;;;;1.74;100.00;102467.06;5120080;27;20023;-84
2024/01/13 06:45:01;;;;;;;51.38;43.72;;;;;;;1.75;100.00;102479.16;5127763;27;20038;-85
2024/01/13 06:47:26;;;;;;;50.67;43.80;;;;;;;1.76;100.00;102470.50;5128778;27;20031;-84
2024/01/13 06:49:52;;;;;;;49.45;44.10;;;;;;;1.74;100.00;102467.06;5124892;27;20027;-83
2024/01/13 06:52:17;;;;;;;48.65;43.33;;;;;;;1.75;100.00;102468.78;5116311;27;20119;-84
2024/01/13 06:54:42;;;;;;;48.22;42.88;;;;;;;1.78;100.00;102483.47;5093845;28;20019;-84
2024/01/13 06:57:08;;;;;;;51.15;43.35;;;;;;;1.79;100.00;102480.84;5123864;27;20031;-85
2024/01/13 06:59:33;;;;;;;54.53;46.13;;;;;;;1.77;100.00;102463.59;5130516;27;20368;-85
2024/01/13 07:01:58;;;;;;;49.72;43.95;;;;;;;1.78;100.00;102444.53;5129809;27;20023;-85
2024/01/13 07:04:24;;;;;;;53.20;44.97;;;;;;;1.78;100.00;102437.63;5131452;27;20043;-84
2024/01/13 07:06:49;;;;;;;53.40;45.97;;;;;;;1.78;100.00;102441.94;5114341;27;20019;-85
2024/01/13 07:09:17;;;;;;;55.15;45.13;;;;;;;1.78;100.00;102437.63;5123360;27;20004;-84
2024/01/13 07:11:42;;;;;;;53.97;46.30;;;;;;;1.79;100.00;102434.16;5128086;27;20047;-84
2024/01/13 07:14:07;;;;;;;54.88;45.13;;;;;;;1.79;100.00;102422.91;5125670;27;20382;-84
2024/01/13 07:16:33;;;;;;;54.92;46.28;;;;;;;1.79;100.00;102408.19;5130170;27;20051;-77
2024/01/13 07:18:59;;;;;;;53.90;44.85;;;;;;;1.77;100.00;102404.75;5116728;27;20030;-77
2024/01/13 07:21:25;;;;;;;54.63;45.70;;;;;;;1.79;100.00;102407.34;5121469;27;20035;-76
2024/01/13 07:23:50;;;;;;;53.97;46.17;;;;;;;1.78;100.00;102405.63;5121422;27;20411;-76
2024/01/13 07:26:16;;;;;;;52.05;45.63;;;;;;;1.78;100.00;102406.47;5119196;27;20023;-77
2024/01/13 07:28:41;;;;;;;53.35;46.05;;;;;;;1.79;100.00;102403.00;5105495;27;20389;-77
2024/01/13 07:31:06;;;;;;;57.50;47.53;;;;;;;1.80;100.00;102394.34;5125756;27;20063;-77
2024/01/13 07:33:32;;;;;;;53.15;45.58;;;;;;;1.80;100.00;102388.28;5127223;27;20023;-77
2024/01/13 07:35:57;;;;;;;50.85;45.15;;;;;;;1.80;100.00;102390.88;5124867;27;20031;-77
2024/01/13 07:38:23;;;;;;;53.42;45.58;;;;;;;1.79;100.00;102386.56;5124400;27;20476;-79
2024/01/13 07:40:48;;;;;;;52.67;45.38;;;;;;;1.79;100.00;102384.84;5128289;27;20027;-77
2024/01/13 07:43:13;;;;;;;51.90;45.85;;;;;;;1.79;100.00;102403.00;5116467;27;20099;-77
2024/01/13 07:45:39;;;;;;;51.55;44.40;;;;;;;1.81;100.00;102401.25;5117570;27;20034;-78
2024/01/13 07:48:05;;;;;;;56.03;46.08;;;;;;;1.79;100.00;102394.38;5124352;27;20043;-77
2024/01/13 07:50:30;;;;;;;56.97;45.92;;;;;;;1.80;100.00;102383.97;5128198;27;20083;-84
2024/01/13 07:52:55;;;;;;;53.55;44.97;;;;;;;1.81;100.00;102374.44;5131191;27;20022;-85
2024/01/13 07:55:21;;;;;;;51.30;44.63;;;;;;;1.80;100.00;102368.41;5130424;27;20102;-77
2024/01/13 07:57:46;;;;;;;51.83;45.17;;;;;;;1.81;100.00;102364.91;5116853;27;20028;-77
2024/01/13 08:00:12;;;;;;;53.17;45.22;;;;;;;1.82;100.00;102360.59;5104465;27;20035;-81
2024/01/13 08:02:37;;;;;;;53.70;45.90;;;;;;;1.83;100.00;102351.94;5124164;27;20052;-84
2024/01/13 08:05:03;;;;;;;51.40;44.38;;;;;;;1.83;100.00;102362.31;5130205;27;20470;-85
2024/01/13 08:07:31;;;;;;;51.33;43.53;;;;;;;1.82;100.00;102371.81;5111035;27;20019;-84
2024/01/13 08:09:57;;;;;;;51.05;44.22;;;;;;;1.84;100.00;102367.47;5109952;27;20102;-85
2024/01/13 08:12:22;;;;;;;50.72;44.33;;;;;;;1.87;100.00;102359.66;5102691;27;20046;-84
2024/01/13 08:14:48;;;;;;;50.65;43.35;;;;;;;1.86;100.00;102350.16;5125661;27;20038;-86
2024/01/13 08:17:14;;;;;;;50.83;43.35;;;;;;;1.86;100.00;102329.38;5127697;27;20538;-84
2024/01/13 08:19:39;;;;;;;53.45;44.75;;;;;;;1.85;100.00;102334.59;5124814;27;20207;-85
2024/01/13 08:22:04;;;;;;;52.92;44.67;;;;;;;1.88;100.00;102344.94;5129409;27;20759;-85
2024/01/13 08:24:31;;;;;;;51.25;43.88;;;;;;;1.87;100.00;102351.84;5126125;27;20471;-85
2024/01/13 08:26:56;;;;;;;48.42;42.03;;;;;;;1.89;100.00;102331.06;5128433;27;20015;-85
2024/01/13 08:29:22;;;;;;;52.85;45.08;;;;;;;1.89;100.00;102318.97;5119542;27;20454;-85
2024/01/13 08:31:50;;;;;;;53.72;45.35;;;;;;;1.91;100.00;102312.88;5119874;27;20039;-85
2024/01/13 08:34:16;;;;;;;49.30;43.92;;;;;;;1.91;100.00;102324.13;5096918;27;20382;-85
2024/01/13 08:36:42;;;;;;;50.03;44.35;;;;;;;1.93;100.00;102326.69;5125368;27;20015;-85
2024/01/13 08:39:07;;;;;;;51.85;45.35;;;;;;;1.95;100.00;102319.75;5122549;27;20047;-84
2024/01/13 08:41:33;;;;;;;53.10;44.92;;;;;;;1.96;100.00;102322.31;5127809;27;20379;-78
2024/01/13 08:43:59;;;;;;;54.20;45.28;;;;;;;1.98;100.00;102319.69;5114615;27;20399;-78
2024/01/13 08:46:25;;;;;;;53.88;44.95;;;;;;;1.98;100.00;102317.97;5108157;28;20026;-78
2024/01/13 08:48:50;;;;;;;55.05;45.83;;;;;;;2.00;100.00;102323.13;5120843;27;20023;-78
2024/01/13 08:51:15;;;;;;;53.92;46.47;;;;;;;2.00;100.00;102329.22;5110593;27;20023;-78
2024/01/13 08:53:41;;;;;;;53.70;46.95;;;;;;;2.01;100.00;102340.44;5124782;27;20031;-78
2024/01/13 08:56:06;;;;;;;53.75;47.83;;;;;;;2.00;100.00;102355.16;5117191;27;20111;-78
2024/01/13 08:58:32;;;;;;;56.83;48.10;;;;;;;2.00;100.00;102336.09;5121599;27;20059;-78
2024/01/13 09:00:59;;;;;;;53.95;47.67;;;;;;;2.02;100.00;102350.81;5124210;27;20034;-78
2024/01/13 09:03:28;;;;;;;53.67;46.90;;;;;;;2.04;100.00;102343.84;5127341;27;20030;-78
2024/01/13 09:05:54;;;;;;;54.22;48.30;;;;;;;2.06;100.00;102338.63;5118114;27;20482;-79
2024/01/13 09:08:19;;;;;;;56.20;48.83;;;;;;;2.06;100.00;102341.22;5104727;28;20055;-78
2024/01/13 09:10:44;;;;;;;55.40;49.00;;;;;;;2.06;100.00;102344.69;5113498;27;20140;-78
2024/01/13 09:13:10;;;;;;;57.67;48.95;;;;;;;2.06;100.00;102334.31;5125889;27;20035;-78
2024/01/13 09:15:35;;;;;;;56.15;49.22;;;;;;;2.07;100.00;102340.34;5110420;28;20035;-78
2024/01/13 09:18:03;;;;;;;54.15;48.25;;;;;;;2.09;100.00;102348.97;5129609;28;20026;-78
2024/01/13 09:20:28;;;;;;;53.70;47.92;;;;;;;2.07;100.00;102341.22;5111121;28;20161;-78
2024/01/13 09:22:53;;;;;;;53.20;47.45;;;;;;;2.10;100.00;102341.16;5118606;28;20118;-78
2024/01/13 09:25:19;;;;;;;51.65;45.97;;;;;;;2.09;100.00;102336.00;5119991;27;20024;-86
2024/01/13 09:27:44;;;;;;;51.10;45.70;;;;;;;2.09;100.00;102333.41;5089187;28;20027;-85
2024/01/13 09:30:11;;;;;;;50.25;44.90;;;;;;;2.11;100.00;102331.63;5107284;28;20535;-85
2024/01/13 09:32:36;;;;;;;49.90;44.15;;;;;;;2.10;100.00;102329.91;5107719;28;20034;-85
2024/01/13 09:35:02;;;;;;;49.08;43.97;;;;;;;2.11;100.00;102336.81;5106631;28;20019;-86
2024/01/13 09:37:27;;;;;;;49.38;44.17;;;;;;;2.11;100.00;102335.09;5107200;28;20031;-86
2024/01/13 09:39:53;;;;;;;47.40;42.42;;;;;;;2.13;100.00;102340.25;5122481;28;20031;-85
2024/01/13 09:42:30;;;;;;;46.50;41.63;;;;;;;2.12;100.00;102336.81;5123722;27;20021;-85
2024/01/13 09:44:56;;;;;;;45.88;41.17;;;;;;;2.12;100.00;102328.16;5114529;28;20034;-85
2024/01/13 09:47:22;;;;;;;45.55;40.78;;;;;;;2.12;100.00;102322.97;5108130;28;20016;-85
2024/01/13 09:49:52;;;;;;;44.58;39.90;;;;;;;2.12;100.00;102322.97;5089050;28;20023;-85
2024/01/13 09:52:18;;;;;;;44.70;39.88;;;;;;;2.15;100.00;102325.50;5089514;28;20545;-85
2024/01/13 09:54:51;;;;;;;44.00;39.40;;;;;;;2.15;100.00;102322.91;5107988;28;20035;-85
2024/01/13 09:57:17;;;;;;;45.42;40.63;;;;;;;2.16;100.00;102315.09;5089061;28;20080;-85
2024/01/13 09:59:42;;;;;;;49.83;44.63;;;;;;;2.15;100.00;102320.31;5107774;28;20417;-85
2024/01/13 10:02:13;;;;;;;48.63;43.55;;;;;;;2.18;100.00;102312.47;5109994;28;20102;-85
2024/01/13 10:04:40;;;;;;;49.42;44.33;;;;;;;2.19;100.00;102314.19;5107287;28;20035;-85
2024/01/13 10:07:08;;;;;;;46.80;41.88;;;;;;;2.20;100.00;102321.97;5107200;28;20016;-85
2024/01/13 10:09:33;;;;;;;45.53;40.85;;;;;;;2.20;100.00;102311.56;5126002;28;20114;-85
2024/01/13 10:11:59;;;;;;;42.72;38.38;;;;;;;2.23;100.00;102304.63;5127014;27;20104;-85
2024/01/13 10:14:24;;;;;;;41.28;37.00;;;;;;;2.24;100.00;102296.81;5128545;27;20019;-79
2024/01/13 10:16:50;;;;;;;39.60;35.40;;;;;;;2.26;100.00;102309.75;5127060;28;20023;-85
2024/01/13 10:19:15;;;;;;;40.35;36.25;;;;;;;2.26;100.00;102296.78;5127413;27;20046;-85
2024/01/13 10:21:40;;;;;;;40.60;36.30;;;;;;;2.28;100.00;102298.47;5111305;28;20027;-85
2024/01/13 10:24:06;;;;;;;40.00;36.05;;;;;;;2.28;100.00;102298.47;5111245;28;20092;-85
2024/01/13 10:26:32;;;;;;;39.13;35.13;;;;;;;2.29;100.00;102297.59;5112765;28;20391;-84
2024/01/13 10:29:00;;;;;;;38.35;34.45;;;;;;;2.31;100.00;102297.56;5113519;28;20024;-85
2024/01/13 10:31:26;;;;;;;37.53;33.78;;;;;;;2.28;100.00;102292.41;5111893;28;20387;-84
2024/01/13 10:33:54;;;;;;;39.13;34.92;;;;;;;2.29;100.00;102297.59;5112301;28;20024;-85
2024/01/13 10:36:25;;;;;;;37.85;34.05;;;;;;;2.32;100.00;102284.53;5111864;27;20028;-85
2024/01/13 10:38:54;;;;;;;37.95;34.05;;;;;;;2.29;100.00;102284.59;5120597;27;20015;-84
2024/01/13 10:41:23;;;;;;;36.08;32.55;;;;;;;2.30;100.00;102286.31;5133091;27;20024;-84
2024/01/13 10:43:55;;;;;;;37.83;34.00;;;;;;;2.30;100.00;102281.13;5133029;27;20023;-84
2024/01/13 10:46:26;;;;;;;37.65;33.90;;;;;;;2.31;100.00;102282.81;5132236;27;20023;-84
2024/01/13 10:49:00;;;;;;;37.35;33.55;;;;;;;2.30;100.00;102281.13;5131654;27;20592;-77
2024/01/13 10:51:33;;;;;;;37.42;33.85;;;;;;;2.31;100.00;102271.59;5112805;27;20498;-78
2024/01/13 10:54:00;;;;;;;38.97;34.97;;;;;;;2.30;100.00;102273.31;5128664;27;20047;-77
2024/01/13 10:56:30;;;;;;;39.70;35.50;;;;;;;2.30;100.00;102265.53;5121493;27;20019;-77
2024/01/13 10:58:57;;;;;;;39.90;35.72;;;;;;;2.31;100.00;102262.06;5110001;28;20439;-78
2024/01/13 11:01:22;;;;;;;39.22;35.22;;;;;;;2.33;100.00;102257.69;5109980;28;20114;-77
2024/01/13 11:03:50;;;;;;;40.47;36.35;;;;;;;2.35;100.00;102253.31;5091954;28;20228;-77